Time;durP1;ratioP1;P1;durP2;ratioP2;P2;SDS_P1;SDS_P2;PMS_P1;PMS_P2;Temp;Humidity;BMP_temperature;BMP_pressure;BME280_temperature;BME280_humidity;BME280_pressure;Samples;Min_cycle;Max_cycle;Signal;HPM_P1;HPM_P2
2023/06/17 00:02:07;;;;;;;1.90;1.80;;;;;;;16.20;48.70;101582.78;5055040;28;20017;-80
2023/06/17 00:04:32;;;;;;;2.10;1.90;;;;;;;16.17;49.49;101586.38;5054857;28;20469;-80
2023/06/17 00:06:58;;;;;;;2.07;1.97;;;;;;;16.05;48.90;101573.59;5054483;28;20029;-80
2023/06/17 00:09:25;;;;;;;2.87;2.30;;;;;;;16.03;48.65;101589.34;5054460;28;20036;-81
2023/06/17 00:11:51;;;;;;;2.25;2.05;;;;;;;15.99;49.98;101581.59;5054694;28;20029;-80
2023/06/17 00:14:20;;;;;;;2.20;2.00;;;;;;;15.93;48.84;101577.38;5067897;28;20035;-81
2023/06/17 00:16:46;;;;;;;2.30;2.10;;;;;;;15.86;48.89;101568.84;5074536;28;20024;-81
2023/06/17 00:19:15;;;;;;;3.03;2.40;;;;;;;15.81;48.92;101560.22;5074772;28;20031;-81
2023/06/17 00:21:52;;;;;;;2.67;2.30;;;;;;;15.85;49.57;101566.25;5073976;28;20024;-81
2023/06/17 00:24:18;;;;;;;2.35;2.15;;;;;;;15.79;50.25;101559.38;5056071;28;20086;-80
2023/06/17 00:26:44;;;;;;;2.28;2.08;;;;;;;15.72;51.54;101560.47;5054468;28;20025;-81
2023/06/17 00:29:09;;;;;;;1.90;1.80;;;;;;;15.68;51.07;101561.41;5053415;28;20070;-80
2023/06/17 00:31:35;;;;;;;2.17;1.97;;;;;;;15.64;52.22;101560.66;5054750;28;20033;-80
2023/06/17 00:34:00;;;;;;;2.00;1.90;;;;;;;15.56;50.70;101560.84;5054663;28;20040;-80
2023/06/17 00:36:26;;;;;;;2.50;2.30;;;;;;;15.56;50.95;101563.44;5053061;28;20057;-80
2023/06/17 00:38:51;;;;;;;2.50;2.30;;;;;;;15.48;51.25;101543.63;5054235;28;20083;-80
2023/06/17 00:41:17;;;;;;;2.30;2.10;;;;;;;15.54;52.60;101560.00;5054067;28;20033;-80
2023/06/17 00:43:43;;;;;;;2.78;2.10;;;;;;;15.52;51.23;101563.56;5062494;28;20032;-81
2023/06/17 00:46:10;;;;;;;3.20;2.40;;;;;;;15.55;51.56;101564.34;5074195;28;20115;-80
2023/06/17 00:48:36;;;;;;;3.72;2.40;;;;;;;15.53;51.71;101558.31;5073054;28;20027;-80
2023/06/17 00:51:02;;;;;;;2.77;2.50;;;;;;;15.55;52.61;101569.56;5074005;28;20025;-80
2023/06/17 00:53:29;;;;;;;4.18;2.50;;;;;;;15.49;52.37;101558.41;5073946;28;20103;-81
2023/06/17 00:55:56;;;;;;;2.60;2.40;;;;;;;15.47;52.05;101561.06;5072979;28;20024;-80
2023/06/17 00:58:21;;;;;;;2.40;2.20;;;;;;;15.43;53.66;101562.91;5073684;28;20107;-80
2023/06/17 01:00:46;;;;;;;2.63;2.40;;;;;;;15.37;53.44;101559.56;5074225;28;20108;-80
2023/06/17 01:03:13;;;;;;;2.63;2.37;;;;;;;15.33;53.78;101561.41;5072968;28;20107;-80
2023/06/17 01:05:39;;;;;;;2.33;2.15;;;;;;;15.27;54.01;101565.03;5073663;28;20020;-80
2023/06/17 01:08:14;;;;;;;2.40;2.20;;;;;;;15.20;54.10;101560.81;5073800;28;20016;-80
2023/06/17 01:10:55;;;;;;;2.47;2.28;;;;;;;15.14;54.22;101556.59;5072898;28;20384;-80
2023/06/17 01:13:22;;;;;;;2.60;2.35;;;;;;;15.06;54.03;101549.84;5066958;28;20036;-80
2023/06/17 01:15:49;;;;;;;2.10;1.90;;;;;;;15.03;54.42;101558.59;5053329;28;20029;-80
2023/06/17 01:18:17;;;;;;;2.38;2.17;;;;;;;15.00;54.48;101552.56;5052167;28;20025;-80
2023/06/17 01:20:44;;;;;;;2.50;2.20;;;;;;;14.95;54.89;101548.31;5053551;28;20027;-80
2023/06/17 01:23:10;;;;;;;;;;;;;;;14.94;55.84;101550.94;5053502;28;20533;-80
2023/06/17 01:25:37;;;;;;;;;;;;;;;14.88;55.39;101554.56;5053385;28;19935;-80
2023/06/17 01:28:19;;;;;;;2.38;2.10;;;;;;;14.85;55.76;101546.81;5053684;28;19920;-80
2023/06/17 01:30:47;;;;;;;2.60;2.30;;;;;;;14.82;55.98;101552.09;5052743;28;20093;-80
2023/06/17 01:33:14;;;;;;;2.50;2.30;;;;;;;14.78;55.79;101545.19;5052911;28;20059;-80
2023/06/17 01:35:46;;;;;;;2.72;2.30;;;;;;;14.76;55.87;101549.59;5053045;28;20052;-81
2023/06/17 01:38:20;;;;;;;2.50;2.28;;;;;;;14.72;56.57;101546.19;5052285;28;20535;-80
2023/06/17 01:40:53;;;;;;;2.35;2.15;;;;;;;14.67;56.44;101537.63;5052831;28;20473;-81
2023/06/17 01:43:20;;;;;;;2.15;2.00;;;;;;;14.61;57.16;101542.91;5058100;28;20031;-80
2023/06/17 01:45:46;;;;;;;2.33;2.13;;;;;;;14.54;56.44;101536.13;5072145;28;20036;-80
2023/06/17 01:48:11;;;;;;;2.60;2.40;;;;;;;14.54;55.68;101546.56;5072600;28;20050;-80
2023/06/17 01:50:37;;;;;;;2.67;2.40;;;;;;;14.44;56.95;101532.81;5072454;28;20021;-80
2023/06/17 01:53:02;;;;;;;2.83;2.33;;;;;;;14.46;57.61;101541.50;5072081;28;20025;-80
2023/06/17 01:55:27;;;;;;;2.37;2.17;;;;;;;14.41;57.71;101545.97;5072819;28;20024;-80
2023/06/17 01:57:52;;;;;;;2.13;1.93;;;;;;;14.33;58.12;101548.72;5072829;28;20016;-80
2023/06/17 02:00:18;;;;;;;2.33;2.03;;;;;;;14.28;56.92;101545.31;5071679;28;20047;-80
2023/06/17 02:02:43;;;;;;;2.23;2.03;;;;;;;14.24;58.21;101547.16;5071193;28;20076;-79
2023/06/17 02:05:08;;;;;;;2.77;2.27;;;;;;;14.20;57.67;101545.47;5072475;28;20020;-80
2023/06/17 02:07:34;;;;;;;3.37;2.33;;;;;;;14.14;57.78;101548.22;5072120;28;20016;-80
2023/06/17 02:09:59;;;;;;;2.47;2.00;;;;;;;14.10;59.08;101541.31;5072852;28;20028;-80
2023/06/17 02:12:25;;;;;;;1.97;1.77;;;;;;;14.05;59.63;101544.00;5071242;28;20057;-80
2023/06/17 02:14:50;;;;;;;2.20;2.00;;;;;;;14.00;57.90;101536.28;5070163;28;20056;-80
2023/06/17 02:17:15;;;;;;;2.37;2.17;;;;;;;13.88;58.36;101516.50;5072239;28;20403;-80
2023/06/17 02:19:41;;;;;;;2.63;2.20;;;;;;;13.99;57.76;101536.31;5072433;28;20023;-80
2023/06/17 02:22:06;;;;;;;3.67;2.37;;;;;;;13.88;57.86;101520.84;5071634;28;20035;-80
2023/06/17 02:24:32;;;;;;;3.57;2.70;;;;;;;13.96;57.39;101526.78;5072595;28;20541;-80
2023/06/17 02:26:57;;;;;;;4.47;2.90;;;;;;;13.96;57.76;101524.16;5071618;28;20104;-80
2023/06/17 02:29:25;;;;;;;4.13;2.60;;;;;;;13.99;58.63;101533.69;5072181;28;20111;-80
2023/06/17 02:31:51;;;;;;;2.75;2.40;;;;;;;13.94;58.76;101535.53;5072346;28;20563;-80
2023/06/17 02:34:17;;;;;;;2.50;2.30;;;;;;;13.85;58.71;101526.97;5071435;28;20023;-81
2023/06/17 02:36:42;;;;;;;3.33;2.45;;;;;;;13.81;60.36;101534.91;5056671;28;20108;-80
2023/06/17 02:39:08;;;;;;;2.40;2.20;;;;;;;13.73;58.83;101532.41;5051975;28;20017;-80
2023/06/17 02:41:33;;;;;;;3.40;2.40;;;;;;;13.74;59.14;101534.97;5051451;28;20071;-80
2023/06/17 02:43:59;;;;;;;2.50;2.30;;;;;;;13.71;60.83;101535.06;5063285;28;20028;-80
2023/06/17 02:46:25;;;;;;;2.57;2.30;;;;;;;13.69;59.94;101530.72;5072161;28;20048;-80
2023/06/17 02:48:50;;;;;;;2.40;2.20;;;;;;;13.65;59.23;101523.88;5071840;28;20024;-80
2023/06/17 02:51:16;;;;;;;3.70;2.70;;;;;;;13.61;58.90;101520.47;5068639;28;20033;-80
2023/06/17 02:53:41;;;;;;;3.67;2.93;;;;;;;13.62;59.17;101521.31;5052330;28;20021;-80
2023/06/17 02:56:06;;;;;;;4.67;2.80;;;;;;;13.63;58.96;101518.66;5051886;28;20017;-79
2023/06/17 02:58:36;;;;;;;4.97;3.03;;;;;;;13.65;59.04;101523.88;5052287;28;20496;-79
2023/06/17 03:01:04;;;;;;;3.28;2.78;;;;;;;13.65;59.20;101516.88;5052247;28;20032;-79
2023/06/17 03:03:35;;;;;;;3.75;2.70;;;;;;;13.62;60.20;101513.47;5051159;28;20025;-80
2023/06/17 03:06:03;;;;;;;3.72;3.00;;;;;;;13.58;60.08;101507.47;5052428;28;20017;-80
2023/06/17 03:08:31;;;;;;;3.20;2.60;;;;;;;13.57;60.85;101510.97;5051802;28;20025;-80
2023/06/17 03:10:56;;;;;;;3.30;2.50;;;;;;;13.52;59.69;101517.97;5051199;28;20413;-80
2023/06/17 03:13:21;;;;;;;4.47;3.10;;;;;;;13.51;59.88;101509.31;5057542;28;20108;-80
2023/06/17 03:15:47;;;;;;;4.07;3.00;;;;;;;13.51;59.96;101511.06;5071851;28;20020;-79
2023/06/17 03:18:13;;;;;;;4.75;3.35;;;;;;;13.53;60.38;101509.28;5070932;28;20028;-80
2023/06/17 03:20:40;;;;;;;3.88;3.10;;;;;;;13.51;61.19;101511.91;5072010;28;20016;-79
2023/06/17 03:23:05;;;;;;;4.03;2.95;;;;;;;13.50;60.71;101514.56;5071940;28;20025;-80
2023/06/17 03:25:31;;;;;;;4.10;3.07;;;;;;;13.48;60.23;101509.34;5071445;28;20066;-79
2023/06/17 03:28:00;;;;;;;4.00;3.10;;;;;;;13.49;60.49;101515.44;5072048;28;20066;-79
2023/06/17 03:30:26;;;;;;;4.25;3.13;;;;;;;13.49;60.35;101508.47;5070573;28;20033;-80
2023/06/17 03:32:53;;;;;;;3.57;2.93;;;;;;;13.46;61.70;101502.44;5072074;28;20020;-79
2023/06/17 03:35:18;;;;;;;4.53;3.10;;;;;;;13.45;61.07;101509.44;5071554;28;20050;-80
2023/06/17 03:37:43;;;;;;;3.73;2.80;;;;;;;13.38;62.86;101500.81;5070565;28;20020;-79
2023/06/17 03:40:09;;;;;;;2.93;2.57;;;;;;;13.36;62.30;101505.19;5072720;28;20028;-79
2023/06/17 03:42:35;;;;;;;2.93;2.50;;;;;;;13.28;62.49;101500.09;5075563;28;20028;-79
2023/06/17 03:45:00;;;;;;;3.50;2.60;;;;;;;13.29;62.81;101498.31;5054713;28;20036;-79
2023/06/17 03:47:29;;;;;;;2.50;2.30;;;;;;;13.21;63.93;101498.47;5055092;28;20029;-79
2023/06/17 03:49:54;;;;;;;2.20;2.00;;;;;;;13.21;63.49;101502.81;5055183;28;20040;-79
2023/06/17 03:52:19;;;;;;;2.67;2.47;;;;;;;13.18;62.26;101500.25;5054105;28;20013;-80
2023/06/17 03:54:45;;;;;;;2.67;2.30;;;;;;;13.17;62.93;101491.59;5055024;28;20465;-79
2023/06/17 03:57:13;;;;;;;3.03;2.50;;;;;;;13.23;62.52;101503.66;5054746;28;20056;-79
2023/06/17 03:59:38;;;;;;;3.05;2.50;;;;;;;13.26;63.74;101503.63;5054721;28;20021;-79
2023/06/17 04:02:04;;;;;;;3.47;2.47;;;;;;;13.26;63.16;101503.63;5054479;28;20443;-79
2023/06/17 04:04:34;;;;;;;3.13;2.50;;;;;;;13.27;63.03;101494.91;5072744;28;20060;-79
2023/06/17 04:07:00;;;;;;;3.38;2.75;;;;;;;13.32;62.51;101494.84;5074305;28;20035;-79
2023/06/17 04:09:25;;;;;;;4.30;3.10;;;;;;;13.36;62.85;101491.28;5072765;28;20032;-80
2023/06/17 04:11:51;;;;;;;3.10;2.80;;;;;;;13.43;62.61;101499.00;5055045;28;20017;-79
2023/06/17 04:14:16;;;;;;;4.33;3.20;;;;;;;13.51;62.38;101503.25;5066969;28;20074;-79
2023/06/17 04:16:41;;;;;;;3.83;2.90;;;;;;;13.52;63.32;101500.59;5074676;28;20020;-79
2023/06/17 04:19:09;;;;;;;4.37;3.17;;;;;;;13.58;62.63;101504.84;5074766;28;20021;-79
2023/06/17 04:21:35;;;;;;;3.90;2.90;;;;;;;13.57;62.99;101500.53;5074242;28;20070;-79
2023/06/17 04:24:00;;;;;;;4.30;3.20;;;;;;;13.63;63.05;101492.56;5074521;28;20024;-79
2023/06/17 04:26:25;;;;;;;4.53;3.50;;;;;;;13.65;62.82;101490.81;5073687;28;20029;-79
2023/06/17 04:28:51;;;;;;;3.73;3.13;;;;;;;13.73;63.47;101502.00;5074510;28;20468;-79
2023/06/17 04:31:16;;;;;;;4.60;3.33;;;;;;;13.73;63.52;101495.91;5073872;28;20043;-79
2023/06/17 04:33:41;;;;;;;4.67;3.20;;;;;;;13.81;63.83;101508.81;5073673;28;20525;-79
2023/06/17 04:36:10;;;;;;;3.90;2.93;;;;;;;13.81;63.78;101499.22;5074055;28;20040;-80
2023/06/17 04:38:38;;;;;;;4.20;2.75;;;;;;;13.85;63.34;101506.09;5074484;28;20468;-79
2023/06/17 04:41:05;;;;;;;3.47;2.72;;;;;;;13.87;64.02;101506.06;5073350;28;20021;-79
2023/06/17 04:43:32;;;;;;;3.53;2.90;;;;;;;13.93;63.43;101508.59;5071099;28;20029;-80
2023/06/17 04:45:58;;;;;;;4.78;3.40;;;;;;;13.98;64.07;101509.34;5074151;28;20468;-79
2023/06/17 04:48:28;;;;;;;5.17;3.20;;;;;;;14.02;63.88;101502.31;5073402;28;20025;-80
2023/06/17 04:50:57;;;;;;;6.78;3.13;;;;;;;14.04;63.98;101500.53;5073136;28;20434;-79
2023/06/17 04:53:26;;;;;;;5.00;3.50;;;;;;;14.05;63.92;101508.34;5073630;28;20029;-79
2023/06/17 04:55:52;;;;;;;4.22;3.30;;;;;;;14.07;64.05;101502.25;5070563;28;20103;-79
2023/06/17 04:58:17;;;;;;;5.43;3.37;;;;;;;14.11;64.06;101512.59;5073758;28;20511;-79
2023/06/17 05:00:42;;;;;;;4.50;3.00;;;;;;;14.14;64.11;101504.69;5074125;28;20029;-79
2023/06/17 05:03:08;;;;;;;4.53;3.40;;;;;;;14.19;64.27;101512.41;5073131;28;20024;-79
2023/06/17 05:05:33;;;;;;;5.27;3.30;;;;;;;14.27;64.16;101517.50;5073795;28;20377;-79
2023/06/17 05:07:58;;;;;;;3.83;2.90;;;;;;;14.25;64.71;101501.88;5073606;28;20021;-79
2023/06/17 05:10:23;;;;;;;4.17;3.23;;;;;;;14.41;64.07;101527.69;5072499;28;20036;-79
2023/06/17 05:12:49;;;;;;;5.63;3.60;;;;;;;14.47;64.02;101520.56;5072384;28;20032;-79
2023/06/17 05:15:14;;;;;;;5.73;3.80;;;;;;;14.55;64.06;101522.16;5053402;28;20029;-79
2023/06/17 05:17:39;;;;;;;5.13;3.40;;;;;;;14.62;64.43;101524.63;5052742;28;20428;-79
2023/06/17 05:20:06;;;;;;;4.50;3.17;;;;;;;14.71;64.33;101525.34;5053460;28;20025;-79
2023/06/17 05:22:31;;;;;;;5.88;3.10;;;;;;;14.74;64.57;101518.28;5052780;28;20098;-79
2023/06/17 05:24:56;;;;;;;4.80;3.27;;;;;;;14.82;65.39;101520.75;5052783;28;20024;-79
2023/06/17 05:27:22;;;;;;;4.93;2.93;;;;;;;14.89;63.66;101522.31;5053317;28;20025;-79
2023/06/17 05:29:47;;;;;;;4.40;3.00;;;;;;;14.97;64.45;101524.75;5052627;28;20068;-79
2023/06/17 05:32:12;;;;;;;4.23;3.37;;;;;;;15.06;64.13;101518.47;5053277;28;20021;-79
2023/06/17 05:34:37;;;;;;;3.67;3.00;;;;;;;15.11;64.69;101516.59;5053044;28;20508;-79
2023/06/17 05:37:03;;;;;;;4.33;3.20;;;;;;;15.20;63.89;101523.34;5052677;28;20060;-79
2023/06/17 05:39:28;;;;;;;3.80;3.03;;;;;;;15.26;64.28;101520.59;5052718;28;20025;-79
2023/06/17 05:41:53;;;;;;;3.60;2.90;;;;;;;15.37;64.04;101526.41;5053201;28;20024;-79
2023/06/17 05:44:19;;;;;;;3.00;2.70;;;;;;;15.43;66.14;101526.28;5071623;28;20036;-79
2023/06/17 05:46:44;;;;;;;3.23;2.77;;;;;;;15.50;66.17;101523.50;5073171;28;20047;-79
2023/06/17 05:49:09;;;;;;;2.70;2.37;;;;;;;15.54;65.10;101520.75;5072696;28;20013;-79
2023/06/17 05:51:35;;;;;;;2.60;2.40;;;;;;;15.64;64.92;101523.16;5072286;28;20103;-79
2023/06/17 05:54:00;;;;;;;3.00;2.67;;;;;;;15.70;63.91;101525.63;5057302;28;20067;-79
2023/06/17 05:56:27;;;;;;;2.60;2.40;;;;;;;15.80;65.13;101518.41;5052750;28;20029;-80
2023/06/17 05:58:52;;;;;;;2.60;2.40;;;;;;;15.85;64.65;101506.94;5052259;28;20031;-80
2023/06/17 06:01:17;;;;;;;1.90;1.80;;;;;;;16.43;66.27;101519.31;5052555;28;20025;-80
2023/06/17 06:03:43;;;;;;;2.30;2.10;;;;;;;18.13;65.27;101518.22;5052303;28;20435;-90
2023/06/17 06:06:11;;;;;;;1.87;1.77;;;;;;;19.85;62.54;101515.84;5052093;28;20136;-82
2023/06/17 06:08:36;;;;;;;2.13;1.98;;;;;;;21.15;56.35;101525.75;5051363;28;20047;-82
2023/06/17 06:11:01;;;;;;;3.30;2.43;;;;;;;22.30;56.58;101519.91;5052358;28;20029;-82
2023/06/17 06:13:29;;;;;;;4.03;2.93;;;;;;;23.60;53.61;101517.91;5064243;28;20484;-82
2023/06/17 06:15:55;;;;;;;4.93;3.47;;;;;;;24.60;48.21;101515.34;5073481;28;20028;-82
2023/06/17 06:18:20;;;;;;;5.90;3.97;;;;;;;24.89;48.83;101517.94;5072511;28;20021;-82
2023/06/17 06:20:45;;;;;;;4.33;3.10;;;;;;;24.79;46.93;101523.84;5071737;28;20027;-82
2023/06/17 06:23:11;;;;;;;3.67;3.33;;;;;;;24.10;46.62;101520.25;5072251;28;20545;-82
2023/06/17 06:25:37;;;;;;;4.00;3.30;;;;;;;23.51;48.39;101516.69;5072562;28;20078;-82
2023/06/17 06:28:03;;;;;;;4.50;3.20;;;;;;;23.17;49.29;101517.75;5071882;28;20021;-82
2023/06/17 06:30:29;;;;;;;3.88;3.00;;;;;;;23.03;49.70;101516.75;5072391;28;20064;-82
2023/06/17 06:32:57;;;;;;;3.72;3.15;;;;;;;22.96;49.87;101518.06;5072506;28;20044;-82
2023/06/17 06:35:23;;;;;;;4.30;3.40;;;;;;;22.93;49.21;101518.22;5071408;28;20041;-82
2023/06/17 06:37:48;;;;;;;5.73;4.10;;;;;;;22.87;49.68;101519.44;5072203;28;20093;-82
2023/06/17 06:40:13;;;;;;;4.30;3.37;;;;;;;22.89;50.55;101520.19;5071280;28;20024;-81
2023/06/17 06:42:41;;;;;;;6.67;4.40;;;;;;;22.94;48.88;101517.28;5066192;28;20088;-81
2023/06/17 06:45:07;;;;;;;7.55;5.00;;;;;;;22.89;47.71;101522.00;5052059;28;20036;-81
2023/06/17 06:47:33;;;;;;;6.40;4.47;;;;;;;22.70;49.14;101511.59;5051553;28;20033;-81
2023/06/17 06:49:58;;;;;;;3.95;3.40;;;;;;;22.82;50.00;101522.34;5052411;28;20040;-81
2023/06/17 06:52:23;;;;;;;5.20;4.10;;;;;;;23.01;47.39;101520.44;5051810;28;20025;-82
2023/06/17 06:54:48;;;;;;;4.63;3.20;;;;;;;23.11;48.69;101518.97;5051435;28;20029;-83
2023/06/17 06:57:14;;;;;;;3.57;3.00;;;;;;;23.32;48.23;101519.56;5052342;28;20060;-84
2023/06/17 06:59:39;;;;;;;4.37;3.60;;;;;;;23.37;46.72;101522.78;5052481;28;20083;-83
2023/06/17 07:02:05;;;;;;;5.00;3.87;;;;;;;23.40;45.31;101524.41;5051427;28;20086;-83
2023/06/17 07:04:30;;;;;;;5.30;3.88;;;;;;;23.36;44.86;101521.06;5052245;28;20025;-84
2023/06/17 07:06:55;;;;;;;4.03;3.23;;;;;;;23.40;42.86;101517.31;5052056;28;20025;-84
2023/06/17 07:09:21;;;;;;;5.57;3.97;;;;;;;23.34;43.78;101512.38;5054066;28;20112;-82
2023/06/17 07:11:50;;;;;;;5.50;4.25;;;;;;;23.41;44.78;101520.81;5072412;28;20031;-82
2023/06/17 07:14:15;;;;;;;5.53;3.90;;;;;;;23.37;44.54;101512.19;5052363;28;20142;-82
2023/06/17 07:16:40;;;;;;;5.63;3.87;;;;;;;23.55;42.98;101520.84;5055153;28;20029;-84
2023/06/17 07:19:05;;;;;;;5.80;4.00;;;;;;;23.52;45.16;101513.09;5055789;28;20346;-81
2023/06/17 07:21:31;;;;;;;6.67;3.93;;;;;;;23.66;44.37;101522.84;5055637;28;20055;-82
2023/06/17 07:23:56;;;;;;;5.50;4.10;;;;;;;23.75;41.94;101527.59;5055176;28;20049;-82
2023/06/17 07:26:21;;;;;;;4.20;3.40;;;;;;;23.64;44.99;101524.75;5055931;28;20052;-81
2023/06/17 07:28:47;;;;;;;4.67;3.30;;;;;;;23.81;42.65;101515.78;5055613;28;20052;-82
2023/06/17 07:31:15;;;;;;;4.60;3.30;;;;;;;23.93;39.80;101518.63;5054778;28;20039;-82
2023/06/17 07:33:41;;;;;;;6.30;4.28;;;;;;;23.77;39.14;101524.00;5062898;28;20044;-83
2023/06/17 07:36:06;;;;;;;4.45;3.30;;;;;;;23.70;38.63;101521.69;5057306;28;20397;-82
2023/06/17 07:38:34;;;;;;;5.83;3.50;;;;;;;23.72;42.74;101516.34;5054994;28;20021;-82
2023/06/17 07:41:00;;;;;;;3.90;3.17;;;;;;;23.98;43.25;101517.41;5055502;28;20033;-81
2023/06/17 07:43:25;;;;;;;3.83;3.13;;;;;;;24.26;41.96;101518.38;5055308;28;20039;-81
2023/06/17 07:45:51;;;;;;;3.23;2.83;;;;;;;24.39;42.97;101522.88;5055457;28;20021;-81
2023/06/17 07:48:17;;;;;;;3.90;3.13;;;;;;;24.50;42.85;101505.34;5055156;28;20052;-82
2023/06/17 07:50:42;;;;;;;2.83;2.47;;;;;;;24.69;42.79;101514.78;5054051;28;20037;-82
2023/06/17 07:53:07;;;;;;;2.60;2.40;;;;;;;24.92;42.61;101510.66;5054982;28;20036;-81
2023/06/17 07:55:33;;;;;;;6.03;3.90;;;;;;;24.87;37.09;101517.22;5055479;28;20064;-82
2023/06/17 07:57:58;;;;;;;3.55;3.03;;;;;;;24.71;41.10;101506.75;5054341;28;20027;-81
2023/06/17 08:00:24;;;;;;;3.13;2.83;;;;;;;24.81;42.19;101513.16;5054423;28;20029;-81
2023/06/17 08:02:52;;;;;;;4.23;3.37;;;;;;;24.88;40.48;101511.78;5055138;28;20436;-81
2023/06/17 08:05:17;;;;;;;3.95;3.03;;;;;;;24.90;41.75;101509.03;5053962;28;20112;-82
2023/06/17 08:07:43;;;;;;;3.40;3.10;;;;;;;25.01;40.01;101506.53;5054808;28;20057;-82
2023/06/17 08:10:08;;;;;;;3.10;2.80;;;;;;;24.94;38.20;101503.41;5054320;28;20047;-81
2023/06/17 08:12:33;;;;;;;3.80;2.90;;;;;;;24.95;40.91;101501.63;5059150;28;20036;-81
2023/06/17 08:14:58;;;;;;;2.90;2.60;;;;;;;25.03;38.33;101501.97;5074736;28;20040;-81
2023/06/17 08:17:24;;;;;;;3.70;2.80;;;;;;;25.08;41.06;101507.84;5074671;28;20108;-81
2023/06/17 08:19:49;;;;;;;2.80;2.60;;;;;;;25.27;38.98;101501.28;5073882;28;20036;-81
2023/06/17 08:22:15;;;;;;;3.70;3.03;;;;;;;25.34;39.84;101502.56;5074448;28;20275;-81
2023/06/17 08:24:40;;;;;;;4.10;3.20;;;;;;;25.36;37.87;101502.47;5074877;28;20028;-82
2023/06/17 08:27:09;;;;;;;2.60;2.40;;;;;;;25.36;40.59;101502.47;5073382;28;20049;-81
2023/06/17 08:29:35;;;;;;;2.42;2.22;;;;;;;25.51;40.36;101505.91;5058081;28;20032;-82
2023/06/17 08:32:00;;;;;;;2.43;2.23;;;;;;;25.65;39.56;101505.81;5054632;28;20025;-81
2023/06/17 08:34:28;;;;;;;2.10;1.90;;;;;;;25.75;40.40;101508.69;5054117;28;20370;-81
2023/06/17 08:36:53;;;;;;;2.28;2.10;;;;;;;25.79;38.53;101498.69;5064321;28;20503;-83
2023/06/17 08:39:19;;;;;;;2.40;2.20;;;;;;;25.86;39.46;101498.16;5073274;28;20024;-83
2023/06/17 08:41:45;;;;;;;2.10;2.00;;;;;;;26.01;39.28;101492.72;5071684;28;20689;-83
2023/06/17 08:44:12;;;;;;;1.85;1.75;;;;;;;26.19;39.51;101494.09;5073475;28;20358;-83
2023/06/17 08:46:38;;;;;;;1.92;1.83;;;;;;;26.36;34.24;101497.38;5074199;28;20510;-83
2023/06/17 08:49:04;;;;;;;2.00;1.90;;;;;;;26.46;38.54;101490.41;5059084;28;20025;-83
2023/06/17 08:51:30;;;;;;;2.40;2.20;;;;;;;26.54;37.03;101494.31;5054060;28;20091;-82
2023/06/17 08:53:57;;;;;;;2.40;2.20;;;;;;;26.56;31.46;101493.25;5054385;28;20029;-83
2023/06/17 08:56:22;;;;;;;3.05;2.70;;;;;;;26.45;35.72;101494.03;5053684;28;20100;-83
2023/06/17 08:58:49;;;;;;;3.92;3.00;;;;;;;26.46;35.57;101494.91;5054082;28;20120;-83
2023/06/17 09:01:16;;;;;;;7.45;3.88;;;;;;;26.30;30.63;101496.00;5053004;28;20040;-83
2023/06/17 09:03:42;;;;;;;4.20;3.50;;;;;;;26.24;34.27;101485.78;5053988;28;20108;-83
2023/06/17 09:06:28;;;;;;;4.95;2.90;;;;;;;26.33;35.50;101492.25;5053703;28;20060;-82
2023/06/17 09:08:55;;;;;;;7.20;4.10;;;;;;;26.22;32.64;101490.38;5052801;28;20025;-82
2023/06/17 09:11:25;;;;;;;4.65;3.58;;;;;;;26.13;33.83;101486.56;5054439;28;20024;-81
2023/06/17 09:13:52;;;;;;;5.18;3.75;;;;;;;26.13;32.14;101497.19;5053007;28;20376;-80
2023/06/17 09:16:23;;;;;;;4.78;3.80;;;;;;;25.95;33.88;101494.00;5051867;28;20044;-79
2023/06/17 09:18:59;;;;;;;6.20;3.80;;;;;;;26.00;32.44;101488.34;5053450;28;20473;-81
2023/06/17 09:21:26;;;;;;;9.07;4.25;;;;;;;26.03;30.66;101493.47;5045359;28;20379;-80
2023/06/17 09:24:03;;;;;;;5.18;3.80;;;;;;;26.07;31.80;101494.94;5051948;28;20025;-80
2023/06/17 09:26:32;;;;;;;8.02;4.53;;;;;;;25.93;31.32;101495.91;5053054;28;20025;-80
2023/06/17 09:29:05;;;;;;;5.40;3.80;;;;;;;25.96;31.90;101487.72;5051943;28;20111;-80
2023/06/17 09:31:31;;;;;;;4.20;3.30;;;;;;;26.16;32.69;101488.13;5053358;28;20024;-80
2023/06/17 09:34:02;;;;;;;4.75;3.15;;;;;;;26.41;32.18;101491.69;5053548;28;20087;-81
2023/06/17 09:36:28;;;;;;;4.10;3.10;;;;;;;26.58;32.41;101488.66;5051209;28;20045;-89
2023/06/17 09:38:53;;;;;;;;;;;;;;;26.76;31.38;101490.94;5052939;28;20029;-81
2023/06/17 09:41:20;;;;;;;3.80;2.90;;;;;;;26.91;32.38;101486.31;5053028;28;19920;-81
2023/06/17 09:43:52;;;;;;;7.63;4.10;;;;;;;26.88;29.66;101483.88;5052627;28;20307;-81
2023/06/17 09:46:29;;;;;;;6.35;4.00;;;;;;;26.68;30.00;101489.66;5053938;28;20078;-83
2023/06/17 09:48:57;;;;;;;4.40;3.60;;;;;;;26.63;32.15;101486.50;5063872;28;20028;-79
2023/06/17 09:51:23;;;;;;;3.47;3.17;;;;;;;26.90;33.27;101481.94;5071563;28;20043;-79
2023/06/17 09:53:50;;;;;;;3.70;2.70;;;;;;;27.20;33.46;101486.78;5073178;28;20020;-79
2023/06/17 09:56:17;;;;;;;2.58;2.38;;;;;;;27.50;33.79;101481.91;5072696;28;20106;-79
2023/06/17 09:58:44;;;;;;;3.22;2.63;;;;;;;27.73;32.11;101480.97;5072340;28;20039;-79
2023/06/17 10:01:11;;;;;;;2.60;2.40;;;;;;;27.87;31.80;101479.88;5072975;28;20012;-79
2023/06/17 10:03:37;;;;;;;2.60;2.40;;;;;;;28.03;32.43;101481.31;5072681;28;20523;-79
2023/06/17 10:06:03;;;;;;;;;;;;;;;28.03;30.44;101482.16;5072083;28;20024;-81
2023/06/17 10:08:30;;;;;;;4.45;3.30;;;;;;;27.96;31.13;101480.97;5072383;28;20053;-80
2023/06/17 10:10:59;;;;;;;3.67;2.92;;;;;;;28.15;32.07;101475.00;5072755;28;20029;-80
2023/06/17 10:13:28;;;;;;;2.88;2.60;;;;;;;28.33;31.77;101480.69;5071741;28;20412;-81
2023/06/17 10:15:56;;;;;;;4.38;3.10;;;;;;;28.36;30.29;101467.09;5072571;28;20029;-81
2023/06/17 10:18:23;;;;;;;4.28;3.38;;;;;;;28.26;29.84;101468.81;5063304;28;20025;-81
2023/06/17 10:20:49;;;;;;;5.13;3.55;;;;;;;28.28;29.32;101471.34;5052708;28;20049;-80
2023/06/17 10:23:18;;;;;;;6.10;3.72;;;;;;;28.24;28.16;101470.75;5052220;28;20040;-81
2023/06/17 10:25:45;;;;;;;4.18;3.25;;;;;;;28.23;30.10;101463.72;5051869;28;20083;-81
2023/06/17 10:28:10;;;;;;;3.53;3.03;;;;;;;28.33;30.29;101456.66;5052262;28;20092;-81
2023/06/17 10:30:37;;;;;;;;;;;;;;;28.56;31.86;101461.09;5052745;28;20044;-80
2023/06/17 10:33:03;;;;;;;2.90;2.60;;;;;;;28.69;30.75;101461.78;5051283;28;19919;-81
2023/06/17 10:35:40;;;;;;;;;;;;;;;28.85;30.96;101455.19;5052286;28;20037;-80
2023/06/17 10:38:07;;;;;;;5.68;3.60;;;;;;;28.71;27.52;101449.13;5052040;28;19967;-80
2023/06/17 10:40:36;;;;;;;4.10;3.40;;;;;;;28.65;29.45;101449.66;5051659;28;20115;-79
2023/06/17 10:43:01;;;;;;;4.15;3.33;;;;;;;28.74;28.56;101462.28;5052329;28;20461;-79
2023/06/17 10:45:28;;;;;;;;;;;;;;;28.69;29.90;101453.78;5052334;28;20056;-79
2023/06/17 10:48:13;;;;;;;3.88;3.17;;;;;;;28.88;30.47;101452.25;5055506;28;19920;-79
2023/06/17 10:50:39;;;;;;;3.90;3.00;;;;;;;29.11;30.80;101447.63;5076023;28;20025;-79
2023/06/17 10:53:05;;;;;;;;;;;;;;;29.36;30.65;101453.59;5076643;28;20036;-79
2023/06/17 10:55:30;;;;;;;4.63;3.15;;;;;;;29.49;26.99;101453.41;5075406;28;20003;-80
2023/06/17 10:57:57;;;;;;;;;;;;;;;29.25;28.27;101449.16;5076381;28;20025;-80
2023/06/17 11:00:22;;;;;;;4.13;3.15;;;;;;;29.33;29.59;101438.66;5074997;28;19918;-79
2023/06/17 11:02:48;;;;;;;3.45;2.97;;;;;;;29.58;29.19;101447.25;5076404;28;20028;-80
2023/06/17 11:05:15;;;;;;;2.70;2.50;;;;;;;29.74;29.56;101436.88;5075636;28;20472;-79
2023/06/17 11:07:40;;;;;;;2.42;2.22;;;;;;;29.94;29.68;101444.16;5075394;28;20136;-80
2023/06/17 11:10:06;;;;;;;2.60;2.40;;;;;;;29.96;28.86;101426.13;5075389;28;20519;-80
2023/06/17 11:12:35;;;;;;;2.50;2.30;;;;;;;30.12;27.74;101431.78;5075824;28;20044;-80
2023/06/17 11:15:03;;;;;;;5.43;3.42;;;;;;;29.97;27.30;101436.69;5075094;28;20480;-79
2023/06/17 11:17:29;;;;;;;3.40;2.78;;;;;;;29.99;28.72;101426.72;5074913;28;20029;-80
2023/06/17 11:19:55;;;;;;;3.00;2.70;;;;;;;30.11;29.20;101423.91;5059062;28;20041;-81
2023/06/17 11:22:21;;;;;;;4.95;3.35;;;;;;;30.07;26.38;101422.50;5054733;28;20472;-80
2023/06/17 11:24:46;;;;;;;3.60;3.10;;;;;;;30.07;26.50;101422.50;5055484;28;20029;-80